Time;durP1;ratioP1;P1;durP2;ratioP2;P2;SDS_P1;SDS_P2;PMS_P1;PMS_P2;Temp;Humidity;BMP_temperature;BMP_pressure;BME280_temperature;BME280_humidity;BME280_pressure;Samples;Min_cycle;Max_cycle;Signal;HPM_P1;HPM_P2
2022/03/14 00:01:00;;;;;;;6.63;4.97;;;;;;;1.29;37.59;98294.78;6225179;28;20709;-69
2022/03/14 00:04:03;;;;;;;7.37;4.90;;;;;;;1.21;37.70;98296.75;6225996;28;20393;-69
2022/03/14 00:07:05;;;;;;;6.60;4.60;;;;;;;1.11;38.19;98291.84;6226023;28;20767;-69
2022/03/14 00:10:09;;;;;;;7.67;5.60;;;;;;;1.29;37.09;98286.97;6226085;28;20783;-69
2022/03/14 00:13:12;;;;;;;6.60;5.00;;;;;;;1.28;37.33;98280.91;6226214;28;20240;-69
2022/03/14 00:16:22;;;;;;;7.97;5.07;;;;;;;1.67;35.58;98281.31;6225530;28;20317;-69
2022/03/14 00:19:24;;;;;;;7.80;4.70;;;;;;;1.58;36.32;98278.16;6227435;28;20236;-69
2022/03/14 00:22:26;;;;;;;8.33;5.57;;;;;;;1.74;35.84;98276.72;6231374;28;20332;-69
2022/03/14 00:25:29;;;;;;;6.30;4.17;;;;;;;1.91;35.42;98271.75;6230039;28;20223;-69
2022/03/14 00:28:31;;;;;;;7.17;4.57;;;;;;;1.77;36.51;98269.66;6230877;28;20235;-69
2022/03/14 00:31:33;;;;;;;6.80;4.57;;;;;;;1.70;36.44;98256.91;6231285;28;20247;-69
2022/03/14 00:34:36;;;;;;;6.17;4.63;;;;;;;1.94;35.43;98263.84;6228824;28;20243;-69
2022/03/14 00:37:38;;;;;;;9.90;5.13;;;;;;;1.99;35.54;98272.34;6230400;28;20597;-69
2022/03/14 00:40:41;;;;;;;10.37;5.13;;;;;;;2.00;35.86;98284.44;6229786;28;20235;-69
2022/03/14 00:43:43;;;;;;;8.63;5.00;;;;;;;1.96;36.17;98280.25;6227860;28;20687;-69
2022/03/14 00:46:46;;;;;;;6.73;4.60;;;;;;;2.00;36.00;98284.44;6228038;28;20326;-69
2022/03/14 00:49:48;;;;;;;7.33;4.97;;;;;;;2.01;36.28;98272.25;6233193;28;20260;-69
2022/03/14 00:52:50;;;;;;;7.20;4.70;;;;;;;2.21;35.34;98272.38;6231664;28;20634;-69
2022/03/14 00:55:52;;;;;;;5.70;4.80;;;;;;;2.29;35.16;98278.19;6229796;28;20239;-69
2022/03/14 00:58:55;;;;;;;7.20;4.67;;;;;;;2.25;35.59;98281.78;6230662;28;20244;-68
2022/03/14 01:01:57;;;;;;;6.37;4.63;;;;;;;2.28;35.89;98283.44;6229354;28;20226;-70
2022/03/14 01:05:01;;;;;;;10.57;4.93;;;;;;;2.35;36.00;98283.13;6211417;28;20583;-69
2022/03/14 01:08:03;;;;;;;6.80;4.87;;;;;;;2.31;36.08;98276.34;6227382;28;20608;-69
2022/03/14 01:11:05;;;;;;;6.33;4.17;;;;;;;2.08;37.18;98290.22;6229177;28;20703;-69
2022/03/14 01:14:07;;;;;;;5.93;4.43;;;;;;;1.89;37.42;98289.19;6229472;28;20235;-69
2022/03/14 01:17:11;;;;;;;7.07;4.90;;;;;;;1.96;37.06;98290.66;6227908;28;20597;-69
2022/03/14 01:20:12;;;;;;;6.37;4.40;;;;;;;2.04;37.36;98286.03;6230481;28;20632;-69
2022/03/14 01:23:14;;;;;;;7.10;4.80;;;;;;;1.88;38.13;98287.50;6228191;28;20227;-69
2022/03/14 01:26:17;;;;;;;9.23;5.43;;;;;;;1.94;37.80;98286.41;6229032;28;20232;-69
2022/03/14 01:29:22;;;;;;;7.27;3.90;;;;;;;1.83;38.18;98300.66;6228873;28;20232;-69
2022/03/14 01:32:24;;;;;;;7.07;4.63;;;;;;;1.58;39.87;98291.19;6226710;28;20704;-69
2022/03/14 01:35:27;;;;;;;6.17;4.23;;;;;;;1.38;40.86;98290.09;6227320;28;20228;-70
2022/03/14 01:38:29;;;;;;;7.87;4.80;;;;;;;1.13;41.14;98297.00;6210939;28;20224;-69
2022/03/14 01:41:32;;;;;;;5.43;4.13;;;;;;;1.03;41.34;98288.66;6229107;28;20228;-69
2022/03/14 01:44:34;;;;;;;6.77;4.83;;;;;;;0.95;41.03;98289.81;6226705;28;20219;-69
2022/03/14 01:47:38;;;;;;;6.87;4.80;;;;;;;0.95;41.69;98295.88;6229212;28;20238;-70
2022/03/14 01:50:40;;;;;;;5.87;4.43;;;;;;;0.79;42.44;98296.41;6227626;28;20734;-70
2022/03/14 01:53:42;;;;;;;6.07;4.20;;;;;;;0.67;42.66;98277.72;6225821;28;20238;-69
2022/03/14 01:56:46;;;;;;;7.57;5.23;;;;;;;0.95;41.71;98279.41;6228916;28;20602;-69
2022/03/14 01:59:49;;;;;;;8.37;5.17;;;;;;;1.36;40.26;98278.06;6226649;28;20240;-69
2022/03/14 02:02:55;;;;;;;8.50;4.33;;;;;;;1.25;40.58;98270.63;6227861;28;20323;-69
2022/03/14 02:05:57;;;;;;;8.90;4.77;;;;;;;1.18;40.35;98269.13;6228628;28;20261;-69
2022/03/14 02:09:00;;;;;;;8.30;5.57;;;;;;;1.27;40.85;98283.56;6227413;28;20528;-69
2022/03/14 02:12:02;;;;;;;7.80;4.90;;;;;;;1.25;40.36;98280.16;6227755;28;20586;-69
2022/03/14 02:15:05;;;;;;;8.37;5.27;;;;;;;1.13;41.01;98291.81;6227200;28;20228;-69
2022/03/14 02:18:07;;;;;;;7.83;5.10;;;;;;;1.08;40.64;98289.38;6204617;28;20553;-69
2022/03/14 02:21:10;;;;;;;7.20;5.10;;;;;;;0.94;41.50;98291.56;6223456;28;20265;-69
2022/03/14 02:24:12;;;;;;;6.63;4.40;;;;;;;0.82;41.80;98299.75;6226842;28;20358;-69
2022/03/14 02:27:15;;;;;;;7.87;4.57;;;;;;;0.64;42.41;98297.72;6227712;28;20235;-69
2022/03/14 02:30:18;;;;;;;6.33;4.87;;;;;;;0.52;43.43;98301.53;6227003;28;20224;-69
2022/03/14 02:33:20;;;;;;;8.57;5.40;;;;;;;0.57;43.16;98306.59;6227386;28;20243;-69
2022/03/14 02:36:32;;;;;;;7.23;4.80;;;;;;;0.55;42.88;98301.44;6226821;28;20228;-69
2022/03/14 02:39:37;;;;;;;6.53;4.63;;;;;;;0.44;43.57;98294.88;6227257;28;20746;-69
2022/03/14 02:42:41;;;;;;;6.00;4.40;;;;;;;0.34;44.09;98302.09;6226874;28;20228;-69
2022/03/14 02:45:45;;;;;;;6.70;4.00;;;;;;;0.23;44.20;98310.19;6227672;28;20607;-69
2022/03/14 02:48:47;;;;;;;6.57;4.20;;;;;;;0.07;45.02;98315.88;6227067;28;20711;-69
2022/03/14 02:51:51;;;;;;;6.33;4.50;;;;;;;-0.03;45.27;98305.75;6225907;28;20231;-69
2022/03/14 02:54:53;;;;;;;7.07;4.63;;;;;;;-0.03;45.48;98308.34;6229764;28;20231;-69
2022/03/14 02:57:54;;;;;;;6.10;4.23;;;;;;;-0.12;45.59;98303.41;6228917;28;20231;-69
2022/03/14 03:00:57;;;;;;;9.37;5.03;;;;;;;-0.20;46.33;98315.72;6232221;28;20605;-69
2022/03/14 03:03:59;;;;;;;7.43;4.63;;;;;;;-0.33;46.92;98319.56;6227563;28;20220;-69
2022/03/14 03:07:02;;;;;;;8.30;4.87;;;;;;;-0.49;47.80;98321.69;6226271;28;20235;-69
2022/03/14 03:10:04;;;;;;;7.90;5.03;;;;;;;-0.53;47.97;98319.22;6225035;28;20227;-69
2022/03/14 03:13:09;;;;;;;7.47;4.50;;;;;;;-0.56;48.04;98316.72;6226750;28;20229;-69
2022/03/14 03:16:16;;;;;;;8.33;5.00;;;;;;;-0.40;47.89;98323.22;6226737;28;20741;-68
2022/03/14 03:19:18;;;;;;;6.47;4.40;;;;;;;-0.45;47.97;98325.06;6226751;28;20228;-69
2022/03/14 03:22:20;;;;;;;7.77;4.80;;;;;;;-0.52;48.45;98326.13;6226188;28;20719;-69
2022/03/14 03:25:23;;;;;;;9.90;5.23;;;;;;;-0.46;48.53;98329.41;6225744;28;20236;-69
2022/03/14 03:28:25;;;;;;;9.30;4.83;;;;;;;-0.16;47.92;98332.06;6226481;28;20226;-69
2022/03/14 03:31:28;;;;;;;7.93;5.30;;;;;;;-0.14;47.92;98331.13;6226562;28;20238;-69
2022/03/14 03:34:30;;;;;;;8.07;5.00;;;;;;;-0.21;48.58;98331.34;6224909;28;20627;-69
2022/03/14 03:37:32;;;;;;;7.27;4.37;;;;;;;-0.31;48.47;98329.91;6226155;28;20731;-69
2022/03/14 03:40:34;;;;;;;7.53;4.73;;;;;;;-0.28;48.68;98341.00;6226153;28;20611;-69
2022/03/14 03:43:36;;;;;;;6.87;4.67;;;;;;;-0.31;48.85;98350.63;6226082;28;20603;-70
2022/03/14 03:46:38;;;;;;;6.97;4.67;;;;;;;-0.17;48.09;98351.09;6225981;28;20735;-70
2022/03/14 03:49:40;;;;;;;8.53;5.07;;;;;;;-0.15;48.19;98360.56;6226232;28;20231;-70
2022/03/14 03:52:42;;;;;;;8.20;4.90;;;;;;;-0.07;47.83;98371.56;6226260;28;20369;-69
2022/03/14 03:55:44;;;;;;;6.73;4.80;;;;;;;-0.07;48.14;98384.53;6227955;28;20232;-69
2022/03/14 03:58:47;;;;;;;9.20;4.90;;;;;;;-0.23;48.45;98383.25;6230839;28;20715;-69
2022/03/14 04:01:48;;;;;;;8.77;4.47;;;;;;;-0.34;49.35;98397.38;6230639;28;20606;-69
2022/03/14 04:04:51;;;;;;;5.93;4.27;;;;;;;-0.50;50.17;98399.53;6212947;28;20297;-69
2022/03/14 04:08:00;;;;;;;7.73;4.70;;;;;;;-0.69;50.13;98406.00;6230572;28;22081;-69
2022/03/14 04:11:07;;;;;;;6.90;4.77;;;;;;;-0.84;50.97;98413.28;6230770;28;20235;-69
2022/03/14 04:14:10;;;;;;;8.20;4.77;;;;;;;-0.94;50.98;98414.38;6231115;28;20616;-69
2022/03/14 04:17:14;;;;;;;6.00;4.30;;;;;;;-1.11;51.63;98426.84;6231625;28;20714;-69
2022/03/14 04:20:16;;;;;;;6.67;4.90;;;;;;;-1.36;52.09;98418.75;6231057;28;20446;-69
2022/03/14 04:23:19;;;;;;;7.53;4.83;;;;;;;-1.52;52.45;98417.38;6229789;28;20220;-69
2022/03/14 04:26:23;;;;;;;6.47;4.57;;;;;;;-1.54;52.33;98432.94;6229110;28;20323;-69
2022/03/14 04:29:25;;;;;;;6.63;4.50;;;;;;;-1.64;52.37;98423.63;6229991;28;20235;-69
2022/03/14 04:32:28;;;;;;;7.70;4.70;;;;;;;-1.74;52.87;98429.88;6230074;28;20238;-69
2022/03/14 04:35:29;;;;;;;7.30;4.50;;;;;;;-1.74;53.83;98436.78;6228332;28;20239;-69
2022/03/14 04:38:32;;;;;;;6.77;4.70;;;;;;;-1.86;53.85;98437.84;6229457;28;20450;-69
2022/03/14 04:41:35;;;;;;;8.23;5.07;;;;;;;-1.92;54.41;98443.16;6229336;28;20940;-69
2022/03/14 04:44:37;;;;;;;10.03;4.80;;;;;;;-2.04;54.68;98453.72;6227824;28;20613;-69
2022/03/14 04:47:39;;;;;;;9.93;4.50;;;;;;;-2.12;55.29;98447.84;6228498;28;20745;-69
2022/03/14 04:50:42;;;;;;;6.40;4.70;;;;;;;-2.17;55.08;98441.88;6230502;28;20226;-69
2022/03/14 04:53:44;;;;;;;7.47;4.30;;;;;;;-2.24;55.75;98446.31;6229705;28;20234;-69
2022/03/14 04:56:46;;;;;;;6.53;4.47;;;;;;;-2.30;56.06;98449.00;6229626;28;20330;-70
2022/03/14 04:59:48;;;;;;;8.63;4.63;;;;;;;-2.41;56.88;98451.78;6227447;28;20547;-69
2022/03/14 05:02:50;;;;;;;9.17;5.13;;;;;;;-2.45;57.82;98444.09;6230228;28;20223;-69
2022/03/14 05:05:52;;;;;;;11.27;4.80;;;;;;;-2.52;57.58;98455.41;6229450;28;20227;-69
2022/03/14 05:08:54;;;;;;;7.17;4.60;;;;;;;-2.55;58.08;98452.84;6229706;28;20228;-69
2022/03/14 05:11:57;;;;;;;8.33;5.17;;;;;;;-2.55;58.24;98458.88;6228208;28;20227;-70
2022/03/14 05:14:59;;;;;;;8.17;4.83;;;;;;;-2.58;57.90;98469.25;6229428;28;20235;-69
2022/03/14 05:18:01;;;;;;;8.13;5.87;;;;;;;-2.55;58.01;98471.78;6228819;28;20207;-69
2022/03/14 05:21:03;;;;;;;7.30;4.90;;;;;;;-2.51;58.23;98480.38;6227158;28;20247;-69
2022/03/14 05:24:05;;;;;;;7.27;4.67;;;;;;;-2.50;58.29;98477.75;6228939;28;20215;-69
2022/03/14 05:27:09;;;;;;;7.57;4.83;;;;;;;-2.54;57.84;98481.25;6229523;28;20580;-69
2022/03/14 05:30:11;;;;;;;7.87;4.33;;;;;;;-2.57;58.89;98491.63;6229143;28;20216;-66
2022/03/14 05:33:13;;;;;;;7.63;5.20;;;;;;;-2.57;58.97;98489.06;6228604;28;20250;-67
2022/03/14 05:36:15;;;;;;;6.47;4.90;;;;;;;-2.55;58.13;98487.31;6228419;28;20286;-67
2022/03/14 05:39:17;;;;;;;8.70;4.50;;;;;;;-2.63;58.89;98496.91;6228956;28;20216;-67
2022/03/14 05:42:19;;;;;;;7.80;4.97;;;;;;;-2.64;59.11;98508.09;6226871;28;20208;-67
2022/03/14 05:45:21;;;;;;;7.77;5.03;;;;;;;-2.66;60.14;98510.72;6228911;28;20232;-67
2022/03/14 05:48:23;;;;;;;7.43;4.90;;;;;;;-2.65;59.95;98512.41;6228343;28;20624;-67
2022/03/14 05:51:25;;;;;;;6.53;4.23;;;;;;;-2.57;60.11;98516.63;6227829;28;20741;-67
2022/03/14 05:54:27;;;;;;;8.90;4.77;;;;;;;-2.51;59.79;98519.97;6233059;28;20710;-67
2022/03/14 05:57:34;;;;;;;8.83;5.13;;;;;;;-2.40;60.91;98517.25;6227598;28;20370;-67
2022/03/14 06:00:36;;;;;;;6.43;4.50;;;;;;;-2.33;60.55;98522.28;6228113;28;20234;-67
2022/03/14 06:03:38;;;;;;;5.67;4.37;;;;;;;-2.27;60.78;98526.50;6228415;28;20581;-67
2022/03/14 06:06:40;;;;;;;6.93;4.10;;;;;;;-2.24;60.24;98535.06;6227979;28;20284;-67
2022/03/14 06:09:42;;;;;;;6.53;4.20;;;;;;;-2.21;60.43;98538.47;6226381;28;20231;-68
2022/03/14 06:12:45;;;;;;;8.37;4.73;;;;;;;-2.24;60.49;98536.78;6226753;28;20223;-67
2022/03/14 06:15:47;;;;;;;7.50;4.27;;;;;;;-2.22;59.89;98537.63;6227995;28;20219;-67
2022/03/14 06:18:50;;;;;;;7.10;4.23;;;;;;;-2.19;60.70;98555.66;6226426;28;20219;-67
2022/03/14 06:21:52;;;;;;;7.37;4.40;;;;;;;-2.09;60.57;98559.81;6226614;28;20239;-67
2022/03/14 06:24:54;;;;;;;7.87;4.60;;;;;;;-2.12;59.96;98588.31;6225663;28;20240;-67
2022/03/14 06:27:57;;;;;;;6.63;4.23;;;;;;;-2.11;60.68;98578.81;6226979;28;20227;-67
2022/03/14 06:30:59;;;;;;;7.57;4.70;;;;;;;-2.15;60.14;98598.69;6226793;28;20224;-67
2022/03/14 06:34:01;;;;;;;5.67;4.23;;;;;;;-2.09;60.73;98593.41;6225276;28;20703;-67
2022/03/14 06:37:06;;;;;;;6.07;4.47;;;;;;;-2.13;60.74;98599.53;6227195;28;20284;-67
2022/03/14 06:40:09;;;;;;;6.80;4.53;;;;;;;-2.10;60.84;98599.50;6226094;28;20236;-67
2022/03/14 06:43:11;;;;;;;5.97;4.37;;;;;;;-2.12;60.78;98613.31;6226575;28;20283;-67
2022/03/14 06:46:13;;;;;;;7.60;4.73;;;;;;;-2.09;61.03;98616.69;6226598;28;20244;-67
2022/03/14 06:49:16;;;;;;;7.00;4.53;;;;;;;-2.05;61.59;98620.09;6225347;28;20286;-67
2022/03/14 06:52:18;;;;;;;6.07;4.33;;;;;;;-1.95;62.01;98622.53;6227186;28;20579;-67
2022/03/14 06:55:20;;;;;;;8.03;5.17;;;;;;;-1.89;61.45;98629.31;6224972;28;20655;-66
2022/03/14 06:58:22;;;;;;;8.60;4.87;;;;;;;-1.75;61.92;98634.28;6227152;28;20227;-66
2022/03/14 07:01:25;;;;;;;8.43;5.33;;;;;;;-1.67;62.12;98633.28;6225230;28;20719;-66
2022/03/14 07:04:27;;;;;;;6.13;4.77;;;;;;;-1.58;62.03;98629.69;6226617;28;20232;-65
2022/03/14 07:07:29;;;;;;;7.83;4.90;;;;;;;-1.45;61.48;98638.09;6226461;28;20539;-66
2022/03/14 07:10:31;;;;;;;6.87;4.90;;;;;;;-1.43;61.82;98639.78;6226290;28;20620;-66
2022/03/14 07:13:34;;;;;;;7.47;4.93;;;;;;;-1.37;61.58;98633.63;6226440;28;20745;-66
2022/03/14 07:16:36;;;;;;;7.47;5.07;;;;;;;-1.27;61.04;98638.63;6226141;28;20232;-66
2022/03/14 07:19:42;;;;;;;7.43;5.17;;;;;;;-1.15;61.22;98650.50;6225968;28;20220;-66
2022/03/14 07:22:58;;;;;;;8.53;4.97;;;;;;;-1.05;60.95;98649.47;6225916;28;20224;-66
2022/03/14 07:26:00;;;;;;;8.10;5.03;;;;;;;-0.87;60.38;98663.78;6226012;28;20224;-66
2022/03/14 07:29:02;;;;;;;9.20;5.63;;;;;;;-0.73;60.15;98663.53;6226146;28;20624;-67
2022/03/14 07:32:05;;;;;;;7.50;5.37;;;;;;;-0.58;59.85;98668.41;6224602;28;20244;-66
2022/03/14 07:35:09;;;;;;;10.97;5.73;;;;;;;-0.45;59.72;98669.88;6225822;28;20235;-66
2022/03/14 07:38:13;;;;;;;7.63;5.03;;;;;;;-0.30;59.23;98669.53;6226647;28;20696;-66
2022/03/14 07:41:15;;;;;;;11.03;6.17;;;;;;;-0.08;58.76;98672.53;6225519;28;20679;-66
2022/03/14 07:44:17;;;;;;;8.73;5.20;;;;;;;0.23;57.02;98670.97;6225904;28;20227;-66
2022/03/14 07:47:19;;;;;;;14.93;6.00;;;;;;;0.51;55.93;98689.34;6225406;28;20737;-66
2022/03/14 07:50:21;;;;;;;9.13;5.37;;;;;;;0.77;55.80;98693.06;6225671;28;20711;-66
2022/03/14 07:53:23;;;;;;;10.43;5.07;;;;;;;1.03;55.08;98701.03;6226493;28;20219;-65
2022/03/14 07:56:25;;;;;;;10.00;6.47;;;;;;;1.47;53.14;98707.66;6225188;28;20609;-65
2022/03/14 07:59:27;;;;;;;7.50;5.10;;;;;;;1.91;51.73;98706.41;6226989;28;20711;-66
2022/03/14 08:02:28;;;;;;;11.23;6.03;;;;;;;2.29;51.21;98712.22;6225279;28;20265;-65
2022/03/14 08:05:31;;;;;;;8.50;5.47;;;;;;;2.75;50.27;98720.28;6225824;28;20698;-65
2022/03/14 08:08:33;;;;;;;8.40;4.83;;;;;;;3.16;48.48;98724.16;6226197;28;20330;-65
2022/03/14 08:11:38;;;;;;;7.97;5.20;;;;;;;3.58;47.37;98723.56;6225686;28;20231;-66
2022/03/14 08:14:39;;;;;;;8.60;5.13;;;;;;;4.00;47.13;98724.59;6225696;28;20234;-66
2022/03/14 08:17:42;;;;;;;8.20;5.50;;;;;;;4.41;45.70;98735.25;6225117;28;20307;-66
2022/03/14 08:20:44;;;;;;;7.53;5.27;;;;;;;4.77;44.89;98736.44;6225923;28;20220;-66
2022/03/14 08:23:47;;;;;;;7.77;5.63;;;;;;;5.26;42.71;98733.56;6227020;28;20224;-66
2022/03/14 08:26:49;;;;;;;8.90;5.63;;;;;;;5.66;42.82;98745.81;6225402;28;20226;-66
2022/03/14 08:29:51;;;;;;;7.60;5.50;;;;;;;5.87;41.67;98744.88;6225195;28;20256;-66
2022/03/14 08:32:55;;;;;;;7.30;5.80;;;;;;;6.07;40.33;98751.88;6224668;28;20236;-66
2022/03/14 08:36:00;;;;;;;8.93;5.60;;;;;;;6.35;39.87;98765.41;6224533;28;20241;-66
2022/03/14 08:39:03;;;;;;;8.30;5.87;;;;;;;6.68;39.24;98768.25;6224927;28;20265;-65
2022/03/14 08:42:07;;;;;;;9.50;6.33;;;;;;;6.99;38.77;98771.09;6229188;28;20255;-65
2022/03/14 08:45:12;;;;;;;10.30;5.63;;;;;;;7.16;38.67;98772.06;6230020;28;20240;-66
2022/03/14 08:48:14;;;;;;;8.37;5.80;;;;;;;7.59;38.34;98779.47;6229741;28;20757;-66
2022/03/14 08:51:16;;;;;;;6.60;5.03;;;;;;;7.97;37.40;98771.44;6228303;28;20657;-66
2022/03/14 08:54:18;;;;;;;7.17;5.43;;;;;;;8.12;36.74;98771.44;6205898;28;20681;-66
2022/03/14 08:57:20;;;;;;;11.03;5.73;;;;;;;8.30;36.29;98774.88;6225690;28;20247;-66
2022/03/14 09:00:24;;;;;;;6.93;5.10;;;;;;;8.57;35.82;98779.63;6229230;28;20629;-66
2022/03/14 09:03:26;;;;;;;9.03;5.67;;;;;;;8.80;35.94;98776.56;6228821;28;20219;-66
2022/03/14 09:06:29;;;;;;;9.20;6.07;;;;;;;8.91;35.15;98783.88;6229590;28;20717;-66
2022/03/14 09:09:31;;;;;;;9.50;5.50;;;;;;;9.11;35.53;98788.84;6228781;28;20728;-66
2022/03/14 09:12:33;;;;;;;9.10;6.13;;;;;;;9.45;34.17;98786.00;6228272;28;20594;-66
2022/03/14 09:15:36;;;;;;;8.90;5.90;;;;;;;9.76;33.90;98778.94;6228264;28;20246;-67
2022/03/14 09:18:38;;;;;;;10.70;6.70;;;;;;;9.98;33.65;98776.72;6227788;28;20244;-66
2022/03/14 09:21:40;;;;;;;9.87;6.30;;;;;;;10.27;33.72;98788.16;6228909;28;20232;-66
2022/03/14 09:24:45;;;;;;;9.73;6.43;;;;;;;10.20;32.71;98784.19;6229183;28;20281;-66
2022/03/14 09:27:49;;;;;;;8.67;5.73;;;;;;;10.38;33.23;98776.94;6228847;28;20729;-67
2022/03/14 09:30:52;;;;;;;13.57;6.47;;;;;;;10.46;33.07;98790.50;6227802;28;20824;-67
2022/03/14 09:33:55;;;;;;;8.13;5.80;;;;;;;10.96;32.10;98784.69;6228388;28;21164;-67
2022/03/14 09:36:58;;;;;;;14.07;7.07;;;;;;;11.25;31.39;98802.13;6226927;28;20236;-68
2022/03/14 09:40:00;;;;;;;21.70;7.70;;;;;;;11.56;31.43;98793.03;6227866;28;20238;-67
2022/03/14 09:43:03;;;;;;;38.30;12.73;;;;;;;11.75;30.55;98798.81;6229440;28;20243;-67
2022/03/14 09:46:08;;;;;;;10.17;6.23;;;;;;;11.91;30.89;98803.06;6228208;28;20242;-67
2022/03/14 09:49:14;;;;;;;8.33;6.60;;;;;;;11.92;30.33;98797.69;6229847;28;20246;-67
2022/03/14 09:52:17;;;;;;;8.70;5.93;;;;;;;12.13;29.16;98805.94;6227884;28;20232;-67
2022/03/14 09:55:20;;;;;;;7.53;6.00;;;;;;;11.94;29.64;98805.50;6227416;28;20505;-67
2022/03/14 09:58:22;;;;;;;7.13;5.83;;;;;;;11.82;30.11;98813.31;6228229;28;20228;-67
2022/03/14 10:01:25;;;;;;;10.20;6.37;;;;;;;12.08;30.02;98813.34;6226396;28;20235;-67
2022/03/14 10:04:28;;;;;;;8.30;6.40;;;;;;;12.55;30.32;98808.28;6228050;28;20226;-67
2022/03/14 10:07:29;;;;;;;12.73;6.07;;;;;;;12.71;29.73;98812.47;6227757;28;20230;-65
2022/03/14 10:10:32;;;;;;;8.53;6.47;;;;;;;13.15;29.00;98804.03;6227521;28;20283;-67
2022/03/14 10:13:35;;;;;;;8.17;6.10;;;;;;;13.50;28.94;98804.06;6228175;28;20757;-66
2022/03/14 10:16:38;;;;;;;8.93;6.20;;;;;;;13.73;28.44;98805.88;6226816;28;20239;-67
2022/03/14 10:19:40;;;;;;;8.20;6.37;;;;;;;14.11;28.07;98818.03;6227500;28;20233;-67
2022/03/14 10:22:44;;;;;;;9.47;7.17;;;;;;;13.98;27.68;98807.50;6226723;28;20622;-66
2022/03/14 10:25:46;;;;;;;9.37;6.10;;;;;;;14.23;28.03;98817.09;6227210;28;20813;-67
2022/03/14 10:28:55;;;;;;;7.33;6.03;;;;;;;14.01;27.09;98818.72;6226960;28;20230;-67
2022/03/14 10:32:29;;;;;;;9.53;6.57;;;;;;;13.35;29.12;98815.81;6227014;28;20587;-66
2022/03/14 10:35:37;;;;;;;7.80;6.60;;;;;;;13.01;29.07;98830.63;6227090;28;20233;-66
2022/03/14 10:38:43;;;;;;;7.60;6.50;;;;;;;13.15;28.79;98826.09;6227375;28;20223;-65
2022/03/14 10:41:48;;;;;;;9.83;6.47;;;;;;;13.40;28.74;98830.44;6227004;28;20231;-66
2022/03/14 10:45:11;;;;;;;8.73;5.80;;;;;;;13.58;28.68;98829.06;6226685;28;20332;-65
2022/03/14 10:48:14;;;;;;;8.27;5.80;;;;;;;14.04;28.80;98828.28;6226579;28;20231;-65
2022/03/14 10:51:16;;;;;;;7.43;6.20;;;;;;;14.08;28.01;98823.56;6226242;28;20231;-65
2022/03/14 10:54:18;;;;;;;8.80;5.90;;;;;;;14.28;28.81;98818.41;6226112;28;20227;-65
2022/03/14 10:57:24;;;;;;;7.90;6.27;;;;;;;14.95;27.48;98837.09;6225949;28;20247;-66
2022/03/14 11:00:46;;;;;;;7.87;6.67;;;;;;;14.36;27.42;98836.44;6226083;28;20228;-65
2022/03/14 11:03:49;;;;;;;12.23;7.03;;;;;;;13.58;28.85;98842.31;6226552;28;20231;-65
2022/03/14 11:07:00;;;;;;;8.53;6.10;;;;;;;13.96;28.77;98839.50;6226324;28;20332;-66
2022/03/14 11:10:07;;;;;;;7.40;6.47;;;;;;;14.55;28.43;98839.38;6226477;28;20605;-65
2022/03/14 11:13:12;;;;;;;7.37;6.37;;;;;;;14.96;27.90;98852.09;6225991;28;20242;-65
2022/03/14 11:16:25;;;;;;;7.03;6.33;;;;;;;15.20;26.61;98841.28;6226405;28;20250;-65
2022/03/14 11:19:27;;;;;;;8.13;6.27;;;;;;;15.25;27.07;98846.25;6227984;28;20781;-65
2022/03/14 11:22:31;;;;;;;9.53;6.37;;;;;;;15.41;26.87;98844.88;6225978;28;20223;-65
2022/03/14 11:25:33;;;;;;;9.17;7.30;;;;;;;14.67;27.40;98854.34;6224498;28;20234;-65
2022/03/14 11:28:38;;;;;;;10.67;6.70;;;;;;;15.03;28.64;98844.44;6209633;28;20583;-66
2022/03/14 11:31:40;;;;;;;9.73;6.77;;;;;;;15.75;26.87;98835.00;6216375;28;20240;-66
2022/03/14 11:34:44;;;;;;;8.43;6.87;;;;;;;16.31;26.47;98833.84;6225969;28;20740;-65
2022/03/14 11:37:46;;;;;;;7.67;6.30;;;;;;;16.42;25.99;98847.09;6226677;28;20223;-65
2022/03/14 11:40:49;;;;;;;8.33;7.10;;;;;;;16.05;26.25;98844.06;6226341;28;20349;-66
2022/03/14 11:43:52;;;;;;;8.43;6.70;;;;;;;16.00;26.30;98840.91;6225389;28;20266;-66
2022/03/14 11:47:13;;;;;;;9.27;6.10;;;;;;;16.36;25.91;98847.63;6226478;28;20703;-65
2022/03/14 11:50:16;;;;;;;9.57;6.87;;;;;;;16.41;25.75;98832.09;6224481;28;20254;-66
2022/03/14 11:53:33;;;;;;;7.80;6.37;;;;;;;17.00;25.78;98826.91;6226499;28;20231;-65
2022/03/14 11:56:38;;;;;;;8.43;7.17;;;;;;;17.20;24.54;98842.00;6225897;28;20512;-66
2022/03/14 11:59:40;;;;;;;7.80;6.70;;;;;;;16.50;25.54;98833.94;6225703;28;20223;-65
2022/03/14 12:02:42;;;;;;;12.23;7.43;;;;;;;16.59;25.19;98833.16;6225215;28;20232;-65
2022/03/14 12:05:46;;;;;;;9.60;6.97;;;;;;;16.31;26.00;98833.84;6225689;28;20223;-65
2022/03/14 12:08:50;;;;;;;7.93;6.63;;;;;;;16.13;26.30;98833.59;6230775;28;20590;-65
2022/03/14 12:12:12;;;;;;;8.63;7.10;;;;;;;16.83;25.55;98827.56;6225876;28;20729;-65
2022/03/14 12:15:14;;;;;;;11.97;7.27;;;;;;;17.01;25.28;98835.75;6226129;28;20701;-65
2022/03/14 12:18:28;;;;;;;11.43;6.80;;;;;;;16.95;24.96;98826.50;6230254;28;21042;-66
2022/03/14 12:21:52;;;;;;;8.87;7.03;;;;;;;17.29;24.88;98821.66;6229895;28;20224;-65
2022/03/14 12:24:55;;;;;;;9.13;6.77;;;;;;;17.34;24.97;98814.94;6229762;28;20232;-65
2022/03/14 12:28:24;;;;;;;7.20;5.90;;;;;;;17.50;24.92;98826.88;6229480;28;20231;-66
2022/03/14 12:31:26;;;;;;;9.87;6.67;;;;;;;17.97;24.68;98831.44;6205121;28;20255;-65
2022/03/14 12:34:29;;;;;;;9.47;7.00;;;;;;;17.29;24.49;98835.00;6227930;28;20605;-65
2022/03/14 12:37:40;;;;;;;8.43;6.87;;;;;;;16.21;25.99;98847.09;6230055;28;20243;-65
2022/03/14 12:40:45;;;;;;;7.37;6.30;;;;;;;16.35;26.50;98837.94;6230277;28;20532;-65
2022/03/14 12:43:47;;;;;;;9.93;6.43;;;;;;;16.63;26.12;98828.44;6227566;28;20270;-65
2022/03/14 12:46:59;;;;;;;10.13;6.70;;;;;;;17.32;25.17;98826.72;6228559;28;20234;-65
2022/03/14 12:50:01;;;;;;;17.20;7.53;;;;;;;17.63;24.10;98832.84;6229600;28;20235;-65
2022/03/14 12:53:03;;;;;;;12.07;7.40;;;;;;;17.00;24.45;98840.25;6229558;28;20309;-65
2022/03/14 12:56:17;;;;;;;8.67;6.97;;;;;;;16.45;25.60;98841.50;6229232;28;20266;-65
2022/03/14 12:59:19;;;;;;;16.20;8.00;;;;;;;16.63;25.49;98841.78;6229597;28;20231;-65
2022/03/14 13:02:25;;;;;;;8.27;7.40;;;;;;;16.27;25.98;98837.75;6229799;28;20239;-65
2022/03/14 13:05:28;;;;;;;9.83;7.13;;;;;;;16.59;25.70;98830.50;6227738;28;20231;-65
2022/03/14 13:08:31;;;;;;;8.20;7.00;;;;;;;17.25;25.27;98842.44;6229134;28;20228;-65
2022/03/14 13:11:39;;;;;;;10.13;6.60;;;;;;;16.50;25.47;98833.94;6229244;28;20243;-65
2022/03/14 13:14:43;;;;;;;11.03;6.70;;;;;;;16.62;25.88;98834.75;6227787;28;20308;-65
2022/03/14 13:17:46;;;;;;;14.67;7.00;;;;;;;17.47;24.88;98833.34;6228786;28;20224;-64
2022/03/14 13:20:49;;;;;;;9.80;6.87;;;;;;;16.56;25.52;98834.28;6229239;28;20320;-65
2022/03/14 13:24:06;;;;;;;9.63;7.07;;;;;;;16.13;27.08;98842.44;6228526;28;20251;-65
2022/03/14 13:27:09;;;;;;;7.83;6.20;;;;;;;16.83;25.80;98835.56;6228065;28;20662;-66
2022/03/14 13:30:11;;;;;;;7.67;5.77;;;;;;;18.06;24.33;98837.78;6229100;28;20220;-65
2022/03/14 13:33:24;;;;;;;10.07;6.60;;;;;;;19.24;22.63;98838.97;6228169;28;20239;-65
2022/03/14 13:36:52;;;;;;;8.80;6.50;;;;;;;21.01;21.38;98835.28;6228469;28;20318;-65
2022/03/14 13:39:57;;;;;;;9.70;7.17;;;;;;;21.96;19.62;98837.59;6228791;28;20706;-65
2022/03/14 13:43:00;;;;;;;10.60;6.80;;;;;;;22.45;19.04;98838.47;6228165;28;20255;-65
2022/03/14 13:46:50;;;;;;;10.37;6.60;;;;;;;22.77;18.61;98848.34;6228893;28;20755;-65
2022/03/14 13:50:02;;;;;;;9.57;6.53;;;;;;;24.23;17.64;98841.41;6175607;28;20241;-65
2022/03/14 13:53:04;;;;;;;8.23;5.90;;;;;;;24.74;16.68;98839.75;6175714;28;20688;-65
2022/03/14 13:56:09;;;;;;;8.37;6.60;;;;;;;25.17;16.50;98840.78;6175688;28;20638;-65
2022/03/14 13:59:51;;;;;;;8.20;6.27;;;;;;;25.47;16.38;98840.75;6175190;28;20808;-65
2022/03/14 14:02:59;;;;;;;7.53;6.70;;;;;;;26.59;15.90;98840.06;6176015;28;20273;-65
2022/03/14 14:06:18;;;;;;;6.97;6.23;;;;;;;25.77;15.82;98838.84;6175204;28;20231;-65
2022/03/14 14:09:24;;;;;;;10.00;6.70;;;;;;;25.97;16.05;98827.19;6175758;28;20229;-65
2022/03/14 14:12:31;;;;;;;7.30;6.27;;;;;;;24.50;17.26;98830.03;6175615;28;20577;-65
2022/03/14 14:15:40;;;;;;;8.10;6.63;;;;;;;21.19;19.97;98833.38;6176253;28;20229;-65
2022/03/14 14:19:06;;;;;;;8.70;6.90;;;;;;;19.14;22.32;98831.00;6175606;28;20241;-65
2022/03/14 14:22:10;;;;;;;8.10;6.93;;;;;;;18.12;23.69;98831.00;6175460;28;20735;-65
2022/03/14 14:25:20;;;;;;;9.27;6.70;;;;;;;18.39;23.50;98833.75;6188832;28;20232;-66
2022/03/14 14:28:22;;;;;;;7.43;6.67;;;;;;;19.02;22.70;98829.50;6226317;28;20243;-65